sensor_id;sensor_type;location;lat;lon;timestamp;temperature;humidity
52656;SHT85;35474;51.032;6.998;2023-02-25T00:00:23;4.97;83.11
52656;SHT85;35474;51.032;6.998;2023-02-25T00:02:50;4.87;83.25
52656;SHT85;35474;51.032;6.998;2023-02-25T00:05:18;4.83;83.27
52656;SHT85;35474;51.032;6.998;2023-02-25T00:07:45;4.88;83.07
52656;SHT85;35474;51.032;6.998;2023-02-25T00:10:12;4.79;83.16
52656;SHT85;35474;51.032;6.998;2023-02-25T00:12:40;4.70;83.55
52656;SHT85;35474;51.032;6.998;2023-02-25T00:15:07;4.80;83.58
52656;SHT85;35474;51.032;6.998;2023-02-25T00:17:34;4.81;83.46
52656;SHT85;35474;51.032;6.998;2023-02-25T00:20:10;4.87;83.49
52656;SHT85;35474;51.032;6.998;2023-02-25T00:22:41;4.94;83.33
52656;SHT85;35474;51.032;6.998;2023-02-25T00:25:11;4.90;83.10
52656;SHT85;35474;51.032;6.998;2023-02-25T00:27:39;4.88;83.29
52656;SHT85;35474;51.032;6.998;2023-02-25T00:30:09;4.93;83.18
52656;SHT85;35474;51.032;6.998;2023-02-25T00:32:37;4.93;83.03
52656;SHT85;35474;51.032;6.998;2023-02-25T00:35:06;4.93;83.37
52656;SHT85;35474;51.032;6.998;2023-02-25T00:37:38;4.83;83.52
52656;SHT85;35474;51.032;6.998;2023-02-25T00:40:20;4.80;83.79
52656;SHT85;35474;51.032;6.998;2023-02-25T00:42:47;4.79;83.92
52656;SHT85;35474;51.032;6.998;2023-02-25T00:45:14;4.80;84.01
52656;SHT85;35474;51.032;6.998;2023-02-25T00:47:41;4.70;83.94
52656;SHT85;35474;51.032;6.998;2023-02-25T00:50:19;4.73;84.01
52656;SHT85;35474;51.032;6.998;2023-02-25T00:52:51;4.83;83.85
52656;SHT85;35474;51.032;6.998;2023-02-25T00:55:17;4.83;83.47
52656;SHT85;35474;51.032;6.998;2023-02-25T01:00:48;4.73;83.61
52656;SHT85;35474;51.032;6.998;2023-02-25T01:03:21;4.79;83.65
52656;SHT85;35474;51.032;6.998;2023-02-25T01:05:52;4.69;83.78
52656;SHT85;35474;51.032;6.998;2023-02-25T01:08:36;4.66;84.03
52656;SHT85;35474;51.032;6.998;2023-02-25T01:11:10;4.62;84.10
52656;SHT85;35474;51.032;6.998;2023-02-25T01:13:39;4.59;83.97
52656;SHT85;35474;51.032;6.998;2023-02-25T01:16:09;4.57;84.16
52656;SHT85;35474;51.032;6.998;2023-02-25T01:18:38;4.62;83.95
52656;SHT85;35474;51.032;6.998;2023-02-25T01:21:13;4.72;83.45
52656;SHT85;35474;51.032;6.998;2023-02-25T01:23:45;4.65;82.58
52656;SHT85;35474;51.032;6.998;2023-02-25T01:26:14;4.63;82.95
52656;SHT85;35474;51.032;6.998;2023-02-25T01:28:55;4.65;83.19
52656;SHT85;35474;51.032;6.998;2023-02-25T01:31:22;4.73;82.65
52656;SHT85;35474;51.032;6.998;2023-02-25T01:33:59;4.66;82.65
52656;SHT85;35474;51.032;6.998;2023-02-25T01:36:28;4.65;82.70
52656;SHT85;35474;51.032;6.998;2023-02-25T01:38:56;4.56;82.68
52656;SHT85;35474;51.032;6.998;2023-02-25T01:41:24;4.72;82.54
52656;SHT85;35474;51.032;6.998;2023-02-25T01:44:12;4.57;82.28
52656;SHT85;35474;51.032;6.998;2023-02-25T01:46:47;4.66;82.49
52656;SHT85;35474;51.032;6.998;2023-02-25T01:52:17;4.65;82.22
52656;SHT85;35474;51.032;6.998;2023-02-25T01:54:50;4.53;82.16
52656;SHT85;35474;51.032;6.998;2023-02-25T01:57:23;4.50;82.17
52656;SHT85;35474;51.032;6.998;2023-02-25T01:59:51;4.63;81.86
52656;SHT85;35474;51.032;6.998;2023-02-25T02:02:20;4.57;82.14
52656;SHT85;35474;51.032;6.998;2023-02-25T02:04:49;4.56;82.27
52656;SHT85;35474;51.032;6.998;2023-02-25T02:07:20;4.49;82.36
52656;SHT85;35474;51.032;6.998;2023-02-25T02:09:49;4.44;82.46
52656;SHT85;35474;51.032;6.998;2023-02-25T02:12:23;4.50;82.59
52656;SHT85;35474;51.032;6.998;2023-02-25T02:14:53;4.57;82.19
52656;SHT85;35474;51.032;6.998;2023-02-25T02:17:29;4.53;82.15
52656;SHT85;35474;51.032;6.998;2023-02-25T02:20:16;4.53;82.06
52656;SHT85;35474;51.032;6.998;2023-02-25T02:22:53;4.62;81.80
52656;SHT85;35474;51.032;6.998;2023-02-25T02:29:16;4.49;81.89
52656;SHT85;35474;51.032;6.998;2023-02-25T02:31:32;4.36;82.38
52656;SHT85;35474;51.032;6.998;2023-02-25T02:37:00;4.49;81.94
52656;SHT85;35474;51.032;6.998;2023-02-25T02:39:39;4.53;81.97
52656;SHT85;35474;51.032;6.998;2023-02-25T02:42:17;4.46;81.78
52656;SHT85;35474;51.032;6.998;2023-02-25T02:47:37;4.53;82.09
52656;SHT85;35474;51.032;6.998;2023-02-25T02:53:21;4.60;82.42
52656;SHT85;35474;51.032;6.998;2023-02-25T02:55:53;4.63;82.12
52656;SHT85;35474;51.032;6.998;2023-02-25T02:58:25;4.69;82.27
52656;SHT85;35474;51.032;6.998;2023-02-25T03:01:01;4.59;82.23
52656;SHT85;35474;51.032;6.998;2023-02-25T03:03:33;4.38;83.02
52656;SHT85;35474;51.032;6.998;2023-02-25T03:09:07;4.39;82.96
52656;SHT85;35474;51.032;6.998;2023-02-25T03:11:37;4.39;83.51
52656;SHT85;35474;51.032;6.998;2023-02-25T03:14:03;4.49;83.16
52656;SHT85;35474;51.032;6.998;2023-02-25T03:16:35;4.50;83.01
52656;SHT85;35474;51.032;6.998;2023-02-25T03:19:17;4.48;82.87
52656;SHT85;35474;51.032;6.998;2023-02-25T03:21:50;4.41;83.37
52656;SHT85;35474;51.032;6.998;2023-02-25T03:24:22;4.39;83.47
52656;SHT85;35474;51.032;6.998;2023-02-25T03:26:54;4.48;83.23
52656;SHT85;35474;51.032;6.998;2023-02-25T03:29:21;4.35;83.49
52656;SHT85;35474;51.032;6.998;2023-02-25T03:31:58;4.31;83.76
52656;SHT85;35474;51.032;6.998;2023-02-25T03:34:33;4.31;83.83
52656;SHT85;35474;51.032;6.998;2023-02-25T03:37:05;4.35;83.55
52656;SHT85;35474;51.032;6.998;2023-02-25T03:39:49;4.46;83.45
52656;SHT85;35474;51.032;6.998;2023-02-25T03:42:24;4.38;83.14
52656;SHT85;35474;51.032;6.998;2023-02-25T03:44:55;4.28;83.43
52656;SHT85;35474;51.032;6.998;2023-02-25T03:47:33;4.34;83.58
52656;SHT85;35474;51.032;6.998;2023-02-25T03:50:05;4.39;83.40
52656;SHT85;35474;51.032;6.998;2023-02-25T03:52:33;4.38;83.35
52656;SHT85;35474;51.032;6.998;2023-02-25T03:55:00;4.36;83.29
52656;SHT85;35474;51.032;6.998;2023-02-25T03:57:36;4.39;83.33
52656;SHT85;35474;51.032;6.998;2023-02-25T04:00:13;4.50;83.76
52656;SHT85;35474;51.032;6.998;2023-02-25T04:02:45;4.52;83.39
52656;SHT85;35474;51.032;6.998;2023-02-25T04:05:19;4.48;83.45
52656;SHT85;35474;51.032;6.998;2023-02-25T04:07:53;4.46;83.73
52656;SHT85;35474;51.032;6.998;2023-02-25T04:10:20;4.38;83.26
52656;SHT85;35474;51.032;6.998;2023-02-25T04:13:01;4.36;83.47
52656;SHT85;35474;51.032;6.998;2023-02-25T04:15:32;4.38;83.24
52656;SHT85;35474;51.032;6.998;2023-02-25T04:18:00;4.55;82.53
52656;SHT85;35474;51.032;6.998;2023-02-25T04:20:32;4.66;82.44
52656;SHT85;35474;51.032;6.998;2023-02-25T04:22:59;4.55;82.82
52656;SHT85;35474;51.032;6.998;2023-02-25T04:25:30;4.57;82.62
52656;SHT85;35474;51.032;6.998;2023-02-25T04:28:00;4.62;82.16
52656;SHT85;35474;51.032;6.998;2023-02-25T04:30:30;4.69;82.05
52656;SHT85;35474;51.032;6.998;2023-02-25T04:33:03;4.59;81.78
52656;SHT85;35474;51.032;6.998;2023-02-25T04:35:31;4.41;82.29
52656;SHT85;35474;51.032;6.998;2023-02-25T04:38:00;4.42;82.53
52656;SHT85;35474;51.032;6.998;2023-02-25T04:40:33;4.52;82.06
52656;SHT85;35474;51.032;6.998;2023-02-25T04:43:00;4.45;82.15
52656;SHT85;35474;51.032;6.998;2023-02-25T04:45:27;4.35;82.16
52656;SHT85;35474;51.032;6.998;2023-02-25T04:47:56;4.44;82.13
52656;SHT85;35474;51.032;6.998;2023-02-25T04:50:24;4.34;82.40
52656;SHT85;35474;51.032;6.998;2023-02-25T04:52:51;4.35;82.57
52656;SHT85;35474;51.032;6.998;2023-02-25T04:55:19;4.42;82.35
52656;SHT85;35474;51.032;6.998;2023-02-25T04:57:45;4.41;82.37
52656;SHT85;35474;51.032;6.998;2023-02-25T05:00:24;4.50;82.09
52656;SHT85;35474;51.032;6.998;2023-02-25T05:02:52;4.39;82.17
52656;SHT85;35474;51.032;6.998;2023-02-25T05:05:19;4.44;82.26
52656;SHT85;35474;51.032;6.998;2023-02-25T05:07:48;4.42;81.96
52656;SHT85;35474;51.032;6.998;2023-02-25T05:10:18;4.53;81.97
52656;SHT85;35474;51.032;6.998;2023-02-25T05:12:44;4.48;81.93
52656;SHT85;35474;51.032;6.998;2023-02-25T05:15:14;4.52;82.07
52656;SHT85;35474;51.032;6.998;2023-02-25T05:17:41;4.50;81.90
52656;SHT85;35474;51.032;6.998;2023-02-25T05:20:09;4.46;82.04
52656;SHT85;35474;51.032;6.998;2023-02-25T05:22:40;4.52;82.07
52656;SHT85;35474;51.032;6.998;2023-02-25T05:25:07;4.50;81.84
52656;SHT85;35474;51.032;6.998;2023-02-25T05:27:41;4.57;81.69
52656;SHT85;35474;51.032;6.998;2023-02-25T05:30:08;4.52;81.82
52656;SHT85;35474;51.032;6.998;2023-02-25T05:32:35;4.44;82.10
52656;SHT85;35474;51.032;6.998;2023-02-25T05:35:02;4.44;82.22
52656;SHT85;35474;51.032;6.998;2023-02-25T05:37:37;4.50;82.49
52656;SHT85;35474;51.032;6.998;2023-02-25T05:40:03;4.53;82.50
52656;SHT85;35474;51.032;6.998;2023-02-25T05:42:35;4.46;82.89
52656;SHT85;35474;51.032;6.998;2023-02-25T05:45:06;4.45;83.02
52656;SHT85;35474;51.032;6.998;2023-02-25T05:47:34;4.44;82.97
52656;SHT85;35474;51.032;6.998;2023-02-25T05:50:06;4.53;82.86
52656;SHT85;35474;51.032;6.998;2023-02-25T05:52:34;4.46;83.00
52656;SHT85;35474;51.032;6.998;2023-02-25T05:55:11;4.41;83.33
52656;SHT85;35474;51.032;6.998;2023-02-25T05:57:38;4.34;83.49
52656;SHT85;35474;51.032;6.998;2023-02-25T06:00:04;4.39;83.59
52656;SHT85;35474;51.032;6.998;2023-02-25T06:02:35;4.35;83.56
52656;SHT85;35474;51.032;6.998;2023-02-25T06:05:02;4.31;83.91
52656;SHT85;35474;51.032;6.998;2023-02-25T06:07:29;4.32;83.75
52656;SHT85;35474;51.032;6.998;2023-02-25T06:10:00;4.38;83.79
52656;SHT85;35474;51.032;6.998;2023-02-25T06:12:30;4.28;83.82
52656;SHT85;35474;51.032;6.998;2023-02-25T06:15:01;4.38;83.93
52656;SHT85;35474;51.032;6.998;2023-02-25T06:17:28;4.39;83.94
52656;SHT85;35474;51.032;6.998;2023-02-25T06:19:54;4.42;83.70
52656;SHT85;35474;51.032;6.998;2023-02-25T06:22:21;4.32;83.78
52656;SHT85;35474;51.032;6.998;2023-02-25T06:24:49;4.41;83.63
52656;SHT85;35474;51.032;6.998;2023-02-25T06:27:19;4.31;83.34
52656;SHT85;35474;51.032;6.998;2023-02-25T06:29:49;4.41;83.41
52656;SHT85;35474;51.032;6.998;2023-02-25T06:32:16;4.49;82.86
52656;SHT85;35474;51.032;6.998;2023-02-25T06:34:43;4.49;82.37
52656;SHT85;35474;51.032;6.998;2023-02-25T06:37:10;4.44;82.88
52656;SHT85;35474;51.032;6.998;2023-02-25T06:39:37;4.45;82.42
52656;SHT85;35474;51.032;6.998;2023-02-25T06:42:08;4.52;82.41
52656;SHT85;35474;51.032;6.998;2023-02-25T06:44:35;4.39;82.45
52656;SHT85;35474;51.032;6.998;2023-02-25T06:47:02;4.35;82.37
52656;SHT85;35474;51.032;6.998;2023-02-25T06:49:29;4.31;82.54
52656;SHT85;35474;51.032;6.998;2023-02-25T06:51:56;4.32;82.70
52656;SHT85;35474;51.032;6.998;2023-02-25T06:54:23;4.34;82.54
52656;SHT85;35474;51.032;6.998;2023-02-25T06:56:49;4.39;82.53
52656;SHT85;35474;51.032;6.998;2023-02-25T06:59:18;4.38;82.64
52656;SHT85;35474;51.032;6.998;2023-02-25T07:01:45;4.22;82.84
52656;SHT85;35474;51.032;6.998;2023-02-25T07:04:15;4.35;82.85
52656;SHT85;35474;51.032;6.998;2023-02-25T07:06:45;4.36;82.82
52656;SHT85;35474;51.032;6.998;2023-02-25T07:09:14;4.45;82.42
52656;SHT85;35474;51.032;6.998;2023-02-25T07:11:41;4.34;82.68
52656;SHT85;35474;51.032;6.998;2023-02-25T07:14:08;4.27;82.86
52656;SHT85;35474;51.032;6.998;2023-02-25T07:16:34;4.35;82.80
52656;SHT85;35474;51.032;6.998;2023-02-25T07:19:01;4.39;82.60
52656;SHT85;35474;51.032;6.998;2023-02-25T07:21:28;4.44;82.41
52656;SHT85;35474;51.032;6.998;2023-02-25T07:23:56;4.35;82.49
52656;SHT85;35474;51.032;6.998;2023-02-25T07:26:23;4.45;82.52
52656;SHT85;35474;51.032;6.998;2023-02-25T07:28:54;4.55;82.30
52656;SHT85;35474;51.032;6.998;2023-02-25T07:32:34;4.48;82.59
52656;SHT85;35474;51.032;6.998;2023-02-25T07:35:01;4.36;82.98
52656;SHT85;35474;51.032;6.998;2023-02-25T07:37:28;4.27;83.06
52656;SHT85;35474;51.032;6.998;2023-02-25T07:39:54;4.35;83.20
52656;SHT85;35474;51.032;6.998;2023-02-25T07:42:25;4.45;83.25
52656;SHT85;35474;51.032;6.998;2023-02-25T07:44:52;4.55;83.21
52656;SHT85;35474;51.032;6.998;2023-02-25T07:47:19;4.59;82.97
52656;SHT85;35474;51.032;6.998;2023-02-25T07:49:46;4.46;82.58
52656;SHT85;35474;51.032;6.998;2023-02-25T07:52:13;4.52;82.70
52656;SHT85;35474;51.032;6.998;2023-02-25T07:54:39;4.69;82.50
52656;SHT85;35474;51.032;6.998;2023-02-25T07:57:06;4.66;82.15
52656;SHT85;35474;51.032;6.998;2023-02-25T07:59:32;4.66;81.82
52656;SHT85;35474;51.032;6.998;2023-02-25T08:01:59;4.83;81.74
52656;SHT85;35474;51.032;6.998;2023-02-25T08:04:25;4.88;81.02
52656;SHT85;35474;51.032;6.998;2023-02-25T08:06:53;4.94;80.79
52656;SHT85;35474;51.032;6.998;2023-02-25T08:09:20;5.07;80.46
52656;SHT85;35474;51.032;6.998;2023-02-25T08:11:46;4.98;80.51
52656;SHT85;35474;51.032;6.998;2023-02-25T08:14:14;5.00;80.40
52656;SHT85;35474;51.032;6.998;2023-02-25T08:16:41;4.96;80.03
52656;SHT85;35474;51.032;6.998;2023-02-25T08:19:08;4.94;80.73
52656;SHT85;35474;51.032;6.998;2023-02-25T08:21:34;4.86;80.73
52656;SHT85;35474;51.032;6.998;2023-02-25T08:24:02;4.96;80.69
52656;SHT85;35474;51.032;6.998;2023-02-25T08:26:29;5.28;80.06
52656;SHT85;35474;51.032;6.998;2023-02-25T08:28:56;5.28;80.01
52656;SHT85;35474;51.032;6.998;2023-02-25T08:31:23;4.86;81.74
52656;SHT85;35474;51.032;6.998;2023-02-25T08:33:50;4.88;82.23
52656;SHT85;35474;51.032;6.998;2023-02-25T08:36:23;4.63;82.06
52656;SHT85;35474;51.032;6.998;2023-02-25T08:38:52;4.55;82.48
52656;SHT85;35474;51.032;6.998;2023-02-25T08:41:21;4.52;83.39
52656;SHT85;35474;51.032;6.998;2023-02-25T08:43:50;4.35;84.27
52656;SHT85;35474;51.032;6.998;2023-02-25T08:46:20;4.42;84.91
52656;SHT85;35474;51.032;6.998;2023-02-25T08:48:51;4.38;85.57
52656;SHT85;35474;51.032;6.998;2023-02-25T08:51:19;4.36;85.22
52656;SHT85;35474;51.032;6.998;2023-02-25T08:53:47;4.44;84.68
52656;SHT85;35474;51.032;6.998;2023-02-25T08:56:14;4.56;84.28
52656;SHT85;35474;51.032;6.998;2023-02-25T08:58:41;4.67;83.94
52656;SHT85;35474;51.032;6.998;2023-02-25T09:01:10;4.77;84.37
52656;SHT85;35474;51.032;6.998;2023-02-25T09:03:41;4.62;83.95
52656;SHT85;35474;51.032;6.998;2023-02-25T09:06:23;4.63;85.06
52656;SHT85;35474;51.032;6.998;2023-02-25T09:08:51;4.67;84.96
52656;SHT85;35474;51.032;6.998;2023-02-25T09:11:20;4.69;84.99
52656;SHT85;35474;51.032;6.998;2023-02-25T09:13:48;4.65;85.54
52656;SHT85;35474;51.032;6.998;2023-02-25T09:16:14;4.59;85.24
52656;SHT85;35474;51.032;6.998;2023-02-25T09:18:46;4.73;85.28
52656;SHT85;35474;51.032;6.998;2023-02-25T09:21:13;4.60;85.68
52656;SHT85;35474;51.032;6.998;2023-02-25T09:23:40;4.73;85.92
52656;SHT85;35474;51.032;6.998;2023-02-25T09:26:07;4.75;85.51
52656;SHT85;35474;51.032;6.998;2023-02-25T09:28:34;4.94;85.40
52656;SHT85;35474;51.032;6.998;2023-02-25T09:31:01;5.23;84.43
52656;SHT85;35474;51.032;6.998;2023-02-25T09:33:32;5.38;84.08
52656;SHT85;35474;51.032;6.998;2023-02-25T09:36:04;5.69;83.69
52656;SHT85;35474;51.032;6.998;2023-02-25T09:38:39;5.59;82.96
52656;SHT85;35474;51.032;6.998;2023-02-25T09:43:56;5.95;81.96
52656;SHT85;35474;51.032;6.998;2023-02-25T09:46:31;6.55;79.87
52656;SHT85;35474;51.032;6.998;2023-02-25T09:49:23;6.74;79.43
52656;SHT85;35474;51.032;6.998;2023-02-25T09:51:54;6.56;79.17
52656;SHT85;35474;51.032;6.998;2023-02-25T09:54:29;6.51;79.66
52656;SHT85;35474;51.032;6.998;2023-02-25T09:57:01;7.13;78.95
52656;SHT85;35474;51.032;6.998;2023-02-25T09:59:31;7.54;76.38
52656;SHT85;35474;51.032;6.998;2023-02-25T10:07:55;6.56;77.42
52656;SHT85;35474;51.032;6.998;2023-02-25T10:13:21;6.23;78.08
52656;SHT85;35474;51.032;6.998;2023-02-25T10:16:08;6.33;78.50
52656;SHT85;35474;51.032;6.998;2023-02-25T10:21:34;6.20;79.17
52656;SHT85;35474;51.032;6.998;2023-02-25T10:24:30;6.17;79.53
52656;SHT85;35474;51.032;6.998;2023-02-25T10:27:05;6.33;79.43
52656;SHT85;35474;51.032;6.998;2023-02-25T10:29:48;6.30;78.13
52656;SHT85;35474;51.032;6.998;2023-02-25T10:32:21;6.45;79.03
52656;SHT85;35474;51.032;6.998;2023-02-25T10:34:53;6.41;78.47
52656;SHT85;35474;51.032;6.998;2023-02-25T10:37:27;6.40;78.20
52656;SHT85;35474;51.032;6.998;2023-02-25T10:39:59;6.34;78.41
52656;SHT85;35474;51.032;6.998;2023-02-25T10:42:29;6.11;78.81
52656;SHT85;35474;51.032;6.998;2023-02-25T10:44:59;6.07;79.71
52656;SHT85;35474;51.032;6.998;2023-02-25T10:47:34;5.95;80.60
52656;SHT85;35474;51.032;6.998;2023-02-25T10:55:25;4.69;81.83
52656;SHT85;35474;51.032;6.998;2023-02-25T10:57:54;4.42;82.44
52656;SHT85;35474;51.032;6.998;2023-02-25T11:00:33;4.52;83.01
52656;SHT85;35474;51.032;6.998;2023-02-25T11:03:01;4.57;82.89
52656;SHT85;35474;51.032;6.998;2023-02-25T11:05:37;4.70;82.37
52656;SHT85;35474;51.032;6.998;2023-02-25T11:08:27;4.83;82.42
52656;SHT85;35474;51.032;6.998;2023-02-25T11:11:12;4.81;81.53
52656;SHT85;35474;51.032;6.998;2023-02-25T11:13:41;4.84;81.60
52656;SHT85;35474;51.032;6.998;2023-02-25T11:16:09;4.77;81.65
52656;SHT85;35474;51.032;6.998;2023-02-25T11:18:50;5.06;81.28
52656;SHT85;35474;51.032;6.998;2023-02-25T11:21:26;5.21;80.69
52656;SHT85;35474;51.032;6.998;2023-02-25T11:23:58;5.34;80.34
52656;SHT85;35474;51.032;6.998;2023-02-25T11:26:33;5.60;79.45
52656;SHT85;35474;51.032;6.998;2023-02-25T11:29:06;5.87;79.22
52656;SHT85;35474;51.032;6.998;2023-02-25T11:31:36;6.42;77.17
52656;SHT85;35474;51.032;6.998;2023-02-25T11:34:19;7.13;74.85
52656;SHT85;35474;51.032;6.998;2023-02-25T11:36:48;8.81;71.00
52656;SHT85;35474;51.032;6.998;2023-02-25T11:39:18;8.28;70.46
52656;SHT85;35474;51.032;6.998;2023-02-25T11:41:54;7.70;71.97
52656;SHT85;35474;51.032;6.998;2023-02-25T11:44:23;8.57;70.78
52656;SHT85;35474;51.032;6.998;2023-02-25T11:49:35;9.93;66.41
52656;SHT85;35474;51.032;6.998;2023-02-25T11:52:23;8.75;69.86
52656;SHT85;35474;51.032;6.998;2023-02-25T11:55:17;8.16;69.04
52656;SHT85;35474;51.032;6.998;2023-02-25T12:00:34;8.85;68.65
52656;SHT85;35474;51.032;6.998;2023-02-25T12:09:03;10.35;65.76
52656;SHT85;35474;51.032;6.998;2023-02-25T12:23:46;8.75;65.51
52656;SHT85;35474;51.032;6.998;2023-02-25T12:26:45;8.34;66.61
52656;SHT85;35474;51.032;6.998;2023-02-25T12:40:46;10.84;58.20
52656;SHT85;35474;51.032;6.998;2023-02-25T12:46:19;11.95;53.63
52656;SHT85;35474;51.032;6.998;2023-02-25T12:57:45;10.02;55.98
52656;SHT85;35474;51.032;6.998;2023-02-25T13:00:40;7.77;65.80
52656;SHT85;35474;51.032;6.998;2023-02-25T13:03:32;5.90;71.77
52656;SHT85;35474;51.032;6.998;2023-02-25T13:08:59;5.39;73.90
52656;SHT85;35474;51.032;6.998;2023-02-25T13:36:23;10.04;58.64
52656;SHT85;35474;51.032;6.998;2023-02-25T13:45:27;9.89;52.16
52656;SHT85;35474;51.032;6.998;2023-02-25T13:56:22;8.97;55.32
52656;SHT85;35474;51.032;6.998;2023-02-25T14:11:01;9.52;46.45
52656;SHT85;35474;51.032;6.998;2023-02-25T14:13:57;10.21;45.53
52656;SHT85;35474;51.032;6.998;2023-02-25T14:44:36;9.80;41.66
52656;SHT85;35474;51.032;6.998;2023-02-25T14:47:10;9.79;41.13
52656;SHT85;35474;51.032;6.998;2023-02-25T14:49:53;9.93;41.07
52656;SHT85;35474;51.032;6.998;2023-02-25T14:52:39;10.37;40.43
52656;SHT85;35474;51.032;6.998;2023-02-25T15:01:18;9.16;41.52
52656;SHT85;35474;51.032;6.998;2023-02-25T15:24:01;9.80;39.63
52656;SHT85;35474;51.032;6.998;2023-02-25T15:26:39;9.90;39.65
52656;SHT85;35474;51.032;6.998;2023-02-25T15:29:19;9.19;39.68
52656;SHT85;35474;51.032;6.998;2023-02-25T15:32:44;9.49;41.21
52656;SHT85;35474;51.032;6.998;2023-02-25T15:37:26;9.19;41.62
52656;SHT85;35474;51.032;6.998;2023-02-25T15:40:00;9.26;42.33
52656;SHT85;35474;51.032;6.998;2023-02-25T15:42:46;9.40;43.44
52656;SHT85;35474;51.032;6.998;2023-02-25T15:55:47;9.38;42.44
52656;SHT85;35474;51.032;6.998;2023-02-25T16:00:53;9.26;39.70
52656;SHT85;35474;51.032;6.998;2023-02-25T16:05:53;8.78;39.59
52656;SHT85;35474;51.032;6.998;2023-02-25T16:08:27;8.78;40.61
52656;SHT85;35474;51.032;6.998;2023-02-25T16:11:00;8.78;40.62
52656;SHT85;35474;51.032;6.998;2023-02-25T16:13:30;8.88;41.13
52656;SHT85;35474;51.032;6.998;2023-02-25T16:16:00;8.84;40.28
52656;SHT85;35474;51.032;6.998;2023-02-25T16:18:38;8.57;40.67
52656;SHT85;35474;51.032;6.998;2023-02-25T16:23:49;8.49;40.85
52656;SHT85;35474;51.032;6.998;2023-02-25T16:29:23;8.18;42.89
52656;SHT85;35474;51.032;6.998;2023-02-25T16:32:10;7.72;43.01
52656;SHT85;35474;51.032;6.998;2023-02-25T16:35:10;7.24;43.17
52656;SHT85;35474;51.032;6.998;2023-02-25T16:40:43;7.03;42.73
52656;SHT85;35474;51.032;6.998;2023-02-25T16:43:04;6.81;43.00
52656;SHT85;35474;51.032;6.998;2023-02-25T16:45:40;6.78;43.10
52656;SHT85;35474;51.032;6.998;2023-02-25T16:48:14;6.54;43.52
52656;SHT85;35474;51.032;6.998;2023-02-25T16:50:44;6.31;43.93
52656;SHT85;35474;51.032;6.998;2023-02-25T16:53:17;6.09;44.89
52656;SHT85;35474;51.032;6.998;2023-02-25T16:55:46;5.93;45.36
52656;SHT85;35474;51.032;6.998;2023-02-25T17:00:51;5.72;45.04
52656;SHT85;35474;51.032;6.998;2023-02-25T17:03:20;5.59;45.53
52656;SHT85;35474;51.032;6.998;2023-02-25T17:05:57;5.42;46.14
52656;SHT85;35474;51.032;6.998;2023-02-25T17:08:42;5.46;45.72
52656;SHT85;35474;51.032;6.998;2023-02-25T17:11:16;5.46;45.68
52656;SHT85;35474;51.032;6.998;2023-02-25T17:13:44;5.28;46.21
52656;SHT85;35474;51.032;6.998;2023-02-25T17:16:17;5.45;46.27
52656;SHT85;35474;51.032;6.998;2023-02-25T17:18:49;5.20;46.86
52656;SHT85;35474;51.032;6.998;2023-02-25T17:21:33;5.13;47.60
52656;SHT85;35474;51.032;6.998;2023-02-25T17:24:07;5.01;49.11
52656;SHT85;35474;51.032;6.998;2023-02-25T17:26:42;5.01;48.95
52656;SHT85;35474;51.032;6.998;2023-02-25T17:29:14;4.91;50.92
52656;SHT85;35474;51.032;6.998;2023-02-25T17:31:43;4.81;51.22
52656;SHT85;35474;51.032;6.998;2023-02-25T17:34:29;4.84;51.29
52656;SHT85;35474;51.032;6.998;2023-02-25T17:36:59;4.79;51.86
52656;SHT85;35474;51.032;6.998;2023-02-25T17:39:29;4.79;51.91
52656;SHT85;35474;51.032;6.998;2023-02-25T17:41:56;4.81;51.67
52656;SHT85;35474;51.032;6.998;2023-02-25T17:47:02;4.86;50.73
52656;SHT85;35474;51.032;6.998;2023-02-25T17:49:33;4.67;51.42
52656;SHT85;35474;51.032;6.998;2023-02-25T17:52:02;4.55;51.94
52656;SHT85;35474;51.032;6.998;2023-02-25T17:54:32;4.53;51.85
52656;SHT85;35474;51.032;6.998;2023-02-25T17:57:07;4.52;51.61
52656;SHT85;35474;51.032;6.998;2023-02-25T17:59:39;4.41;51.75
52656;SHT85;35474;51.032;6.998;2023-02-25T18:02:29;4.39;51.95
52656;SHT85;35474;51.032;6.998;2023-02-25T18:07:41;4.53;51.90
52656;SHT85;35474;51.032;6.998;2023-02-25T18:10:39;4.32;52.14
52656;SHT85;35474;51.032;6.998;2023-02-25T18:13:01;4.19;52.72
52656;SHT85;35474;51.032;6.998;2023-02-25T18:15:30;4.04;52.99
52656;SHT85;35474;51.032;6.998;2023-02-25T18:18:00;4.21;53.35
52656;SHT85;35474;51.032;6.998;2023-02-25T18:23:14;4.15;53.41
52656;SHT85;35474;51.032;6.998;2023-02-25T18:26:09;4.22;53.43
52656;SHT85;35474;51.032;6.998;2023-02-25T18:28:42;4.15;53.32
52656;SHT85;35474;51.032;6.998;2023-02-25T18:31:11;4.19;55.12
52656;SHT85;35474;51.032;6.998;2023-02-25T18:33:39;4.27;53.88
52656;SHT85;35474;51.032;6.998;2023-02-25T18:36:07;4.15;54.25
52656;SHT85;35474;51.032;6.998;2023-02-25T18:38:34;4.08;54.01
52656;SHT85;35474;51.032;6.998;2023-02-25T18:41:06;3.94;54.54
52656;SHT85;35474;51.032;6.998;2023-02-25T18:43:33;4.07;54.18
52656;SHT85;35474;51.032;6.998;2023-02-25T18:46:05;3.90;54.55
52656;SHT85;35474;51.032;6.998;2023-02-25T18:48:31;3.94;54.73
52656;SHT85;35474;51.032;6.998;2023-02-25T18:51:01;3.90;54.61
52656;SHT85;35474;51.032;6.998;2023-02-25T18:53:28;3.86;54.97
52656;SHT85;35474;51.032;6.998;2023-02-25T18:57:34;3.62;55.47
52656;SHT85;35474;51.032;6.998;2023-02-25T19:00:01;3.67;56.22
52656;SHT85;35474;51.032;6.998;2023-02-25T19:02:31;3.60;56.07
52656;SHT85;35474;51.032;6.998;2023-02-25T19:05:00;3.63;55.96
52656;SHT85;35474;51.032;6.998;2023-02-25T19:07:29;3.62;56.47
52656;SHT85;35474;51.032;6.998;2023-02-25T19:09:59;3.60;56.42
52656;SHT85;35474;51.032;6.998;2023-02-25T19:12:26;3.62;56.61
52656;SHT85;35474;51.032;6.998;2023-02-25T19:14:55;3.56;56.47
52656;SHT85;35474;51.032;6.998;2023-02-25T19:17:25;3.66;56.33
52656;SHT85;35474;51.032;6.998;2023-02-25T19:19:53;3.46;57.18
52656;SHT85;35474;51.032;6.998;2023-02-25T19:22:20;3.28;57.45
52656;SHT85;35474;51.032;6.998;2023-02-25T19:24:47;3.33;57.95
52656;SHT85;35474;51.032;6.998;2023-02-25T19:29:54;3.32;57.48
52656;SHT85;35474;51.032;6.998;2023-02-25T19:32:23;3.18;57.61
52656;SHT85;35474;51.032;6.998;2023-02-25T19:34:51;3.04;58.38
52656;SHT85;35474;51.032;6.998;2023-02-25T19:37:18;3.05;58.38
52656;SHT85;35474;51.032;6.998;2023-02-25T19:39:45;3.08;58.31
52656;SHT85;35474;51.032;6.998;2023-02-25T19:42:12;2.99;58.59
52656;SHT85;35474;51.032;6.998;2023-02-25T19:44:39;3.02;58.16
52656;SHT85;35474;51.032;6.998;2023-02-25T19:47:06;3.09;59.13
52656;SHT85;35474;51.032;6.998;2023-02-25T19:49:34;3.23;58.59
52656;SHT85;35474;51.032;6.998;2023-02-25T19:52:01;3.08;58.38
52656;SHT85;35474;51.032;6.998;2023-02-25T19:54:27;2.88;58.67
52656;SHT85;35474;51.032;6.998;2023-02-25T19:56:54;2.73;59.13
52656;SHT85;35474;51.032;6.998;2023-02-25T19:59:20;2.73;59.17
52656;SHT85;35474;51.032;6.998;2023-02-25T20:01:50;2.98;58.59
52656;SHT85;35474;51.032;6.998;2023-02-25T20:04:17;3.02;58.48
52656;SHT85;35474;51.032;6.998;2023-02-25T20:06:44;2.83;58.93
52656;SHT85;35474;51.032;6.998;2023-02-25T20:09:10;2.74;59.47
52656;SHT85;35474;51.032;6.998;2023-02-25T20:11:37;2.67;60.07